Terminal Aerodrome Forecast
Issued by NWS Duluth, MN

Home | Current Version | Previous Version | Text Only | Print | Product List | Glossary On
Versions: 1 2 3 4 5 6 7 8 9 10 11 12 13 14 15 16 17 18 19 20 21 22 23 24 25 26 27 28 29 30 31
065
FTUS43 KDLH 291144
TAFDLH
TAF
KDLH 291144Z 2912/3012 27006KT 5SM BR BKN002 OVC014
      TEMPO 2912/2915 6SM BR SCT005 BKN008
     FM291500 28012KT P6SM SCT006 BKN012
     FM291800 29012G18KT P6SM VCSH BKN015
     FM292100 29012G18KT P6SM VCSH BKN045
     FM300000 27008KT P6SM SCT060
     FM300500 29006KT 5SM BR SCT080=

USA.gov is the U.S. government's official web portal to all federal, state and local government web resources and services.